Time;durP1;ratioP1;P1;durP2;ratioP2;P2;SDS_P1;SDS_P2;PMS_P1;PMS_P2;Temp;Humidity;BMP_temperature;BMP_pressure;BME280_temperature;BME280_humidity;BME280_pressure;Samples;Min_cycle;Max_cycle;Signal;HPM_P1;HPM_P2
2022/05/17 00:00:57;;;;;;;11.57;4.55;;;;;;;20.59;75.70;100796.28;5035193;28;20034;-82
2022/05/17 00:03:23;;;;;;;11.80;4.50;;;;;;;20.60;75.74;100792.56;5017477;28;20038;-86
2022/05/17 00:05:48;;;;;;;8.35;4.85;;;;;;;20.66;75.23;100790.84;5017512;28;20038;-83
2022/05/17 00:08:16;;;;;;;18.23;5.38;;;;;;;20.49;75.45;100794.09;5035160;28;20042;-84
2022/05/17 00:10:43;;;;;;;14.07;4.80;;;;;;;20.39;76.12;100791.06;5033165;28;20423;-83
2022/05/17 00:13:09;;;;;;;14.32;4.88;;;;;;;20.21;77.00;100792.84;5035109;28;20041;-84
2022/05/17 00:15:37;;;;;;;10.25;4.65;;;;;;;20.17;77.57;100791.63;5034725;28;20030;-84
2022/05/17 00:18:03;;;;;;;13.85;5.07;;;;;;;20.23;77.17;100785.38;5017322;28;20045;-85
2022/05/17 00:20:29;;;;;;;13.55;5.05;;;;;;;20.23;76.77;100782.69;5035016;28;20039;-87
2022/05/17 00:22:54;;;;;;;10.60;4.80;;;;;;;20.31;76.69;100787.84;5045306;28;20084;-83
2022/05/17 00:25:23;;;;;;;12.20;4.75;;;;;;;20.12;77.51;100787.72;5053384;28;20041;-84
2022/05/17 00:27:49;;;;;;;10.35;4.47;;;;;;;19.98;78.04;100791.56;5034665;28;20091;-83
2022/05/17 00:30:15;;;;;;;20.35;4.78;;;;;;;20.06;77.66;100783.22;5016788;28;20057;-84
2022/05/17 00:32:41;;;;;;;11.60;4.78;;;;;;;19.98;78.37;100788.06;5034422;28;20056;-85
2022/05/17 00:35:08;;;;;;;12.82;5.60;;;;;;;19.90;78.49;100781.06;5000404;28;20579;-83
2022/05/17 00:37:34;;;;;;;10.93;4.38;;;;;;;19.97;78.31;100779.16;5016133;28;20087;-83
2022/05/17 00:40:00;;;;;;;19.60;5.57;;;;;;;19.98;78.30;100777.28;5034983;28;20037;-85
2022/05/17 00:42:27;;;;;;;9.40;4.88;;;;;;;20.22;77.07;100771.09;5034525;28;20061;-84
2022/05/17 00:44:52;;;;;;;12.30;5.00;;;;;;;20.35;75.95;100762.13;5034325;28;20124;-86
2022/05/17 00:47:25;;;;;;;12.30;4.93;;;;;;;20.37;75.37;100770.81;5016562;28;20060;-82
2022/05/17 00:50:08;;;;;;;12.10;4.32;;;;;;;20.50;74.50;100765.31;5016479;28;20044;-87
2022/05/17 00:52:41;;;;;;;17.42;5.18;;;;;;;20.29;75.73;100758.44;5017006;28;20045;-83
2022/05/17 00:55:31;;;;;;;17.48;5.20;;;;;;;20.12;76.76;100750.06;5034393;28;20520;-85
2022/05/17 00:58:07;;;;;;;13.77;4.80;;;;;;;20.20;75.60;100748.97;4989343;28;20132;-84
2022/05/17 01:00:37;;;;;;;13.40;4.93;;;;;;;20.19;76.23;100749.16;5034053;28;20034;-84
2022/05/17 01:03:07;;;;;;;20.63;5.68;;;;;;;20.29;75.17;100746.84;5034122;28;20029;-87
2022/05/17 01:05:43;;;;;;;11.05;4.97;;;;;;;19.96;77.33;100745.22;5033888;28;20034;-83
2022/05/17 01:08:11;;;;;;;13.13;5.15;;;;;;;19.85;77.79;100742.41;5033625;28;20033;-84
2022/05/17 01:10:37;;;;;;;11.65;5.30;;;;;;;19.89;77.42;100748.97;5033935;28;20033;-84
2022/05/17 01:15:47;;;;;;;11.73;5.07;;;;;;;19.66;79.12;100748.72;5033695;28;20563;-84
2022/05/17 01:18:13;;;;;;;16.60;5.53;;;;;;;19.63;79.13;100752.66;5015754;28;20038;-82
2022/05/17 01:20:39;;;;;;;18.52;5.85;;;;;;;19.49;80.12;100743.00;5016100;28;20033;-83
2022/05/17 01:23:05;;;;;;;10.32;4.93;;;;;;;19.47;80.49;100747.78;5032742;28;20061;-83
2022/05/17 01:25:32;;;;;;;14.25;5.28;;;;;;;19.52;80.08;100731.84;5033549;28;20021;-83
2022/05/17 01:28:03;;;;;;;15.40;5.18;;;;;;;19.43;80.83;100741.19;5033277;28;20089;-84
2022/05/17 01:30:30;;;;;;;10.80;5.18;;;;;;;19.49;80.42;100737.63;5033653;28;20033;-82
2022/05/17 01:32:56;;;;;;;19.63;6.13;;;;;;;19.41;80.86;100751.34;5033414;28;20116;-83
2022/05/17 01:35:22;;;;;;;19.33;6.72;;;;;;;19.33;81.71;100751.53;5015874;28;20067;-84
2022/05/17 01:37:54;;;;;;;20.63;6.28;;;;;;;19.33;81.74;100754.22;5033536;28;20033;-83
2022/05/17 01:43:43;;;;;;;11.48;5.80;;;;;;;19.47;80.50;100748.63;5049737;28;20443;-86
2022/05/17 01:46:09;;;;;;;13.45;5.85;;;;;;;19.43;80.96;100751.94;5033379;28;20043;-85
2022/05/17 01:48:36;;;;;;;16.05;5.93;;;;;;;19.44;81.18;100745.53;5033441;28;20030;-86
2022/05/17 01:51:03;;;;;;;14.57;5.75;;;;;;;19.35;81.51;100744.09;5032664;28;20032;-84
2022/05/17 01:53:29;;;;;;;22.70;6.45;;;;;;;19.37;81.69;100744.69;5033110;28;20029;-82
2022/05/17 01:55:54;;;;;;;14.55;6.13;;;;;;;19.43;81.08;100741.19;5033281;28;20373;-83
2022/05/17 01:58:21;;;;;;;12.55;6.25;;;;;;;19.44;81.19;100740.97;5033363;28;20396;-82
2022/05/17 02:00:47;;;;;;;15.13;6.45;;;;;;;19.48;80.94;100738.69;5033177;28;20033;-82
2022/05/17 02:03:12;;;;;;;11.05;5.57;;;;;;;19.38;81.34;100743.66;5032941;28;20404;-81
2022/05/17 02:05:38;;;;;;;16.88;6.68;;;;;;;19.41;80.97;100746.78;5033003;28;20033;-84
2022/05/17 02:08:05;;;;;;;15.48;6.05;;;;;;;19.35;81.09;100752.16;5032916;28;20038;-82
2022/05/17 02:10:31;;;;;;;13.38;6.10;;;;;;;19.42;80.81;100745.72;5032805;28;20030;-81
2022/05/17 02:12:58;;;;;;;15.90;6.35;;;;;;;19.35;80.88;100746.78;5032701;28;20400;-82
2022/05/17 02:15:25;;;;;;;10.88;5.57;;;;;;;19.30;81.13;100746.59;5032895;28;20472;-82
2022/05/17 02:17:52;;;;;;;17.05;6.20;;;;;;;19.22;81.70;100749.53;5015137;28;20056;-84
2022/05/17 02:20:18;;;;;;;16.00;6.05;;;;;;;19.21;81.76;100748.69;5015139;28;20025;-83
2022/05/17 02:22:44;;;;;;;14.23;5.80;;;;;;;19.18;81.95;100754.50;5032917;28;20125;-83
2022/05/17 02:25:11;;;;;;;13.70;6.07;;;;;;;19.19;82.00;100744.59;5015129;28;20465;-84
2022/05/17 02:27:38;;;;;;;13.73;6.68;;;;;;;19.18;82.04;100754.50;5032610;28;20057;-83
2022/05/17 02:30:06;;;;;;;17.23;6.60;;;;;;;19.14;82.40;100749.75;5015111;28;20041;-82
2022/05/17 02:32:32;;;;;;;18.35;7.05;;;;;;;19.14;82.46;100749.75;5015120;28;20065;-83
2022/05/17 02:34:57;;;;;;;15.68;7.70;;;;;;;19.23;81.92;100745.78;5036216;28;20041;-83
2022/05/17 02:37:23;;;;;;;15.25;7.05;;;;;;;19.04;82.71;100748.34;5036485;28;20030;-84
2022/05/17 02:39:48;;;;;;;21.10;6.97;;;;;;;18.97;83.20;100749.41;5036243;28;20041;-85
2022/05/17 02:42:14;;;;;;;13.30;5.80;;;;;;;18.96;83.44;100753.94;5036872;28;20068;-85
2022/05/17 02:44:40;;;;;;;13.48;6.15;;;;;;;18.96;83.28;100756.63;5036640;28;20057;-85
2022/05/17 02:47:06;;;;;;;12.15;7.00;;;;;;;18.92;83.92;100759.97;5036575;28;20480;-83
2022/05/17 02:49:32;;;;;;;18.83;7.47;;;;;;;18.84;84.22;100758.31;5019012;28;20041;-84
2022/05/17 02:52:02;;;;;;;18.38;6.88;;;;;;;18.93;84.16;100753.53;5036754;28;20079;-84
2022/05/17 02:54:27;;;;;;;18.30;7.10;;;;;;;18.89;83.80;100750.44;5018796;28;20047;-84
2022/05/17 02:56:53;;;;;;;19.65;6.80;;;;;;;18.73;84.99;100756.25;5036270;28;20079;-82
2022/05/17 02:59:20;;;;;;;15.50;7.30;;;;;;;18.66;85.38;100755.44;5041846;28;20029;-83
2022/05/17 03:01:46;;;;;;;19.65;6.80;;;;;;;18.56;86.33;100760.41;5055742;28;20037;-81
2022/05/17 03:04:13;;;;;;;18.75;6.45;;;;;;;18.53;86.59;100755.47;5018488;28;20116;-82
2022/05/17 03:06:43;;;;;;;14.63;7.00;;;;;;;18.62;86.35;100764.97;5036222;28;21210;-82
2022/05/17 03:09:09;;;;;;;14.38;6.10;;;;;;;18.84;84.60;100762.84;5035823;28;20046;-82
2022/05/17 03:11:37;;;;;;;15.48;6.60;;;;;;;18.68;84.77;100758.75;5036047;28;20082;-85
2022/05/17 03:14:03;;;;;;;16.50;6.75;;;;;;;18.55;85.30;100764.16;5036224;28;20036;-83
2022/05/17 03:16:30;;;;;;;13.35;5.95;;;;;;;18.43;86.61;100761.22;5036025;28;20037;-82
2022/05/17 03:18:57;;;;;;;16.65;6.15;;;;;;;18.34;87.12;100767.00;5035896;28;20033;-85
2022/05/17 03:21:22;;;;;;;16.02;6.68;;;;;;;18.24;87.30;100755.84;5035764;28;20109;-83
2022/05/17 03:23:48;;;;;;;15.35;6.47;;;;;;;18.16;88.32;100758.75;5035620;28;20104;-82
2022/05/17 03:26:14;;;;;;;15.63;6.18;;;;;;;18.13;88.22;100762.66;5035858;28;20032;-83
2022/05/17 03:28:40;;;;;;;12.15;6.10;;;;;;;18.05;88.86;100757.50;5035851;28;20029;-81
2022/05/17 03:31:09;;;;;;;15.05;6.30;;;;;;;18.16;88.46;100750.72;5035667;28;20061;-82
2022/05/17 03:33:35;;;;;;;9.85;6.32;;;;;;;18.26;87.09;100759.19;5038480;28;20111;-82
2022/05/17 03:36:00;;;;;;;15.15;5.95;;;;;;;18.21;87.76;100751.75;5035540;28;20484;-83
2022/05/17 03:38:27;;;;;;;13.75;6.22;;;;;;;18.03;88.45;100762.22;5035425;28;20025;-82
2022/05/17 03:40:54;;;;;;;16.52;5.55;;;;;;;17.91;89.13;100764.72;5035434;28;20040;-83
2022/05/17 03:43:21;;;;;;;11.35;6.28;;;;;;;17.92;89.54;100762.84;5035298;28;20117;-83
2022/05/17 03:45:47;;;;;;;16.52;6.40;;;;;;;18.05;89.16;100752.16;5034426;28;20474;-85
2022/05/17 03:48:13;;;;;;;12.55;6.13;;;;;;;18.19;88.48;100759.19;5017826;28;20039;-82
2022/05/17 03:50:39;;;;;;;14.60;5.90;;;;;;;18.05;88.67;100761.03;5035445;28;20025;-82
2022/05/17 03:53:05;;;;;;;13.48;5.93;;;;;;;18.02;88.98;100757.91;5035880;28;20060;-81
2022/05/17 03:55:31;;;;;;;18.33;6.43;;;;;;;18.03;88.68;100749.66;5035494;28;20038;-83
2022/05/17 03:57:57;;;;;;;21.30;6.40;;;;;;;17.95;89.18;100757.09;5019729;28;20127;-83
2022/05/17 04:00:22;;;;;;;11.40;5.65;;;;;;;18.15;87.92;100757.94;5037062;28;20117;-82
2022/05/17 04:02:49;;;;;;;11.05;5.35;;;;;;;18.14;87.68;100755.44;5036804;28;20029;-83
2022/05/17 04:05:16;;;;;;;14.55;5.82;;;;;;;18.29;86.83;100756.09;5035311;28;20052;-84
2022/05/17 04:07:42;;;;;;;12.00;5.38;;;;;;;18.30;86.94;100761.22;5035024;28;20447;-84
2022/05/17 04:10:10;;;;;;;11.68;5.63;;;;;;;18.40;86.06;100766.16;5017182;28;20033;-82
2022/05/17 04:12:35;;;;;;;13.13;5.65;;;;;;;18.43;85.79;100766.59;5037569;28;20053;-82
2022/05/17 04:15:03;;;;;;;16.83;6.03;;;;;;;18.38;86.37;100768.25;5034993;28;20021;-81
2022/05/17 04:17:28;;;;;;;15.48;6.78;;;;;;;18.14;87.67;100760.81;5039631;28;20120;-82
2022/05/17 04:19:57;;;;;;;9.40;5.82;;;;;;;18.15;87.99;100762.47;5054382;28;20025;-83
2022/05/17 04:22:23;;;;;;;10.45;5.15;;;;;;;18.14;88.09;100767.00;5037365;28;20042;-86
2022/05/17 04:24:56;;;;;;;13.93;5.85;;;;;;;18.50;86.24;100771.97;5034999;28;20064;-85
2022/05/17 04:27:26;;;;;;;18.17;6.18;;;;;;;18.58;84.96;100771.78;5036212;28;20433;-87
2022/05/17 04:29:55;;;;;;;16.45;6.45;;;;;;;18.52;85.29;100775.31;5035740;28;20496;-88
2022/05/17 04:32:21;;;;;;;14.43;6.53;;;;;;;18.39;86.68;100765.38;5035022;28;20043;-85
2022/05/17 04:34:46;;;;;;;16.25;6.55;;;;;;;18.35;86.88;100771.34;5035078;28;20037;-87
2022/05/17 04:37:12;;;;;;;13.85;6.30;;;;;;;18.53;85.99;100766.19;5035316;28;20034;-85
2022/05/17 04:39:37;;;;;;;13.63;5.72;;;;;;;18.83;83.69;100766.56;5034893;28;20093;-84
2022/05/17 04:42:07;;;;;;;13.15;5.70;;;;;;;19.09;82.73;100772.69;5029572;28;20049;-87
2022/05/17 04:44:32;;;;;;;10.70;5.63;;;;;;;19.29;81.61;100771.84;5014824;28;20129;-85
2022/05/17 04:46:57;;;;;;;15.00;5.97;;;;;;;19.12;81.65;100767.97;5014474;28;20544;-85
2022/05/17 04:49:23;;;;;;;18.08;6.65;;;;;;;18.96;82.73;100777.28;5014780;28;20091;-88
2022/05/17 04:51:53;;;;;;;12.25;6.40;;;;;;;19.02;82.80;100773.78;4997160;28;20096;-84
2022/05/17 04:54:20;;;;;;;12.82;5.60;;;;;;;19.03;83.56;100768.19;5016998;28;20033;-85
2022/05/17 04:56:46;;;;;;;17.98;6.45;;;;;;;18.99;83.31;100769.63;5018432;28;20021;-82
2022/05/17 04:59:12;;;;;;;11.38;6.35;;;;;;;19.00;84.18;100773.16;5021253;28;20120;-88
2022/05/17 05:01:38;;;;;;;19.55;6.55;;;;;;;18.92;84.31;100776.91;5035749;28;20068;-89
2022/05/17 05:04:05;;;;;;;12.50;6.00;;;;;;;18.91;84.61;100769.88;5038108;28;20034;-87
2022/05/17 05:06:30;;;;;;;27.17;6.88;;;;;;;18.98;84.83;100776.06;5034962;28;20037;-89
2022/05/17 05:08:56;;;;;;;18.85;6.80;;;;;;;19.36;82.13;100772.59;5034115;28;20037;-90
2022/05/17 05:11:22;;;;;;;20.70;6.85;;;;;;;19.53;81.29;100781.88;5034514;28;20033;-89
2022/05/17 05:13:48;;;;;;;15.40;5.75;;;;;;;19.59;81.06;100778.31;5017312;28;20041;-89
2022/05/17 05:16:14;;;;;;;14.15;6.60;;;;;;;19.62;81.24;100780.56;5017345;28;20554;-92
2022/05/17 05:18:40;;;;;;;15.75;6.03;;;;;;;19.58;82.02;100782.06;5034237;28;20045;-87
2022/05/17 05:21:12;;;;;;;22.13;5.97;;;;;;;19.73;81.70;100781.78;5034831;28;20026;-89
2022/05/17 05:23:40;;;;;;;26.40;7.15;;;;;;;19.83;80.91;100784.81;5035463;28;20049;-90
2022/05/17 05:26:07;;;;;;;40.90;9.05;;;;;;;19.86;81.24;100787.91;5001732;28;20037;-90
2022/05/17 05:28:35;;;;;;;23.17;6.35;;;;;;;19.96;79.99;100785.56;5035125;28;20083;-89
2022/05/17 05:31:01;;;;;;;18.95;6.40;;;;;;;19.99;79.31;100790.50;5035637;28;20029;-92
2022/05/17 05:33:29;;;;;;;26.90;6.90;;;;;;;20.08;78.42;100789.19;5038540;28;20140;-90
2022/05/17 05:35:55;;;;;;;21.30;6.30;;;;;;;20.18;77.09;100782.53;5045216;28;20022;-87
2022/05/17 05:38:23;;;;;;;17.00;6.20;;;;;;;20.27;77.13;100787.47;5041496;28;20017;-89
2022/05/17 05:40:48;;;;;;;15.55;6.13;;;;;;;20.25;76.57;100788.69;5040256;28;20048;-88
2022/05/17 05:43:14;;;;;;;21.15;6.60;;;;;;;20.52;75.60;100787.44;5040358;28;20546;-89
2022/05/17 05:45:41;;;;;;;13.77;5.50;;;;;;;20.74;75.32;100794.09;5017851;28;20144;-88
2022/05/17 05:48:08;;;;;;;14.43;5.65;;;;;;;20.94;74.42;100789.34;5033652;28;20076;-86
2022/05/17 05:50:34;;;;;;;23.70;5.80;;;;;;;21.30;72.93;100787.72;5017792;28;20033;-86
2022/05/17 05:53:07;;;;;;;23.52;6.18;;;;;;;21.60;70.52;100796.69;5034224;28;20041;-87
2022/05/17 05:55:35;;;;;;;18.50;5.68;;;;;;;21.77;69.75;100795.00;5018925;28;20041;-88
2022/05/17 05:58:03;;;;;;;23.48;5.95;;;;;;;22.06;68.43;100799.59;5034036;28;20400;-86
2022/05/17 06:00:29;;;;;;;19.50;5.47;;;;;;;22.17;67.27;100802.56;5033636;28;20029;-86
2022/05/17 06:02:55;;;;;;;16.13;6.10;;;;;;;22.46;66.24;100805.19;5034317;28;20021;-89
2022/05/17 06:05:23;;;;;;;14.90;5.72;;;;;;;22.64;65.49;100801.56;5035285;28;20041;-87
2022/05/17 06:07:50;;;;;;;14.80;5.32;;;;;;;22.86;64.28;100805.38;5015915;28;20115;-86
2022/05/17 06:10:17;;;;;;;18.38;5.57;;;;;;;23.03;64.05;100803.59;5034548;28;20531;-87
2022/05/17 06:12:43;;;;;;;15.02;5.30;;;;;;;23.29;63.37;100806.84;5035180;28;20044;-86
2022/05/17 06:15:09;;;;;;;14.05;5.65;;;;;;;23.80;61.58;100806.81;5043175;28;20033;-87
2022/05/17 06:17:37;;;;;;;17.65;5.45;;;;;;;23.53;62.76;100800.34;5027880;28;20037;-85
2022/05/17 06:20:05;;;;;;;15.60;5.93;;;;;;;23.59;61.79;100811.03;5047389;28;20033;-86
2022/05/17 06:22:30;;;;;;;15.38;6.40;;;;;;;23.91;62.14;100813.25;5045694;28;20044;-86
2022/05/17 06:24:56;;;;;;;14.65;6.22;;;;;;;24.60;59.07;100820.16;5049976;28;20006;-88
2022/05/17 06:27:21;;;;;;;14.73;6.57;;;;;;;24.75;58.44;100809.56;5050357;28;20022;-87
2022/05/17 06:29:47;;;;;;;21.88;6.07;;;;;;;25.95;54.00;100820.38;5033833;28;20028;-87
2022/05/17 06:32:15;;;;;;;16.08;5.95;;;;;;;25.84;54.70;100824.09;5052877;28;20041;-88
2022/05/17 06:34:42;;;;;;;14.98;5.80;;;;;;;26.66;50.83;100821.88;5035340;28;20137;-88
2022/05/17 06:37:09;;;;;;;15.57;6.85;;;;;;;27.50;49.13;100823.78;5052759;28;20053;-89
2022/05/17 06:39:35;;;;;;;15.07;6.45;;;;;;;28.30;47.44;100827.81;5032646;28;20095;-87
2022/05/17 06:42:02;;;;;;;19.65;6.35;;;;;;;27.95;47.70;100828.53;5048720;28;20047;-88
2022/05/17 06:44:32;;;;;;;26.27;8.00;;;;;;;27.26;49.79;100833.44;5035911;28;20061;-87
2022/05/17 06:47:01;;;;;;;22.23;7.68;;;;;;;26.42;53.11;100830.63;5034103;28;20129;-91
2022/05/17 06:49:27;;;;;;;15.32;7.28;;;;;;;26.96;52.67;100837.63;5033441;28;20029;-87
2022/05/17 06:51:53;;;;;;;17.92;8.15;;;;;;;26.99;53.03;100818.03;4999608;28;20028;-87
2022/05/17 06:54:19;;;;;;;15.05;7.07;;;;;;;27.44;50.83;100824.84;5037134;28;20041;-88
2022/05/17 06:56:45;;;;;;;15.70;8.40;;;;;;;26.56;53.66;100826.41;5056665;28;20025;-89
2022/05/17 06:59:11;;;;;;;18.70;7.43;;;;;;;26.86;53.09;100826.66;4993512;28;20053;-90
2022/05/17 07:01:38;;;;;;;25.95;8.75;;;;;;;26.34;55.04;100828.41;5015515;28;20029;-86
2022/05/17 07:04:04;;;;;;;23.58;8.57;;;;;;;26.60;54.45;100833.81;5015695;28;20385;-88
2022/05/17 07:06:29;;;;;;;18.15;8.00;;;;;;;26.43;54.51;100826.84;5015519;28;20514;-89
2022/05/17 07:08:55;;;;;;;19.40;7.95;;;;;;;26.93;53.63;100821.81;5015072;28;20117;-88
2022/05/17 07:14:05;;;;;;;19.88;8.18;;;;;;;27.21;52.38;100824.16;5015028;28;20069;-88
2022/05/17 07:16:31;;;;;;;17.10;8.65;;;;;;;26.79;53.48;100831.47;5014937;28;20454;-89
2022/05/17 07:18:56;;;;;;;19.45;9.00;;;;;;;26.65;54.10;100836.53;5032283;28;20073;-88
2022/05/17 07:21:22;;;;;;;18.80;8.88;;;;;;;26.11;56.41;100829.53;5035181;28;20116;-87
2022/05/17 07:23:55;;;;;;;12.05;7.53;;;;;;;26.60;55.15;100833.81;5045572;28;20508;-88
2022/05/17 07:26:20;;;;;;;;;;;;;;;27.26;53.30;100831.53;5046260;28;20384;-92
2022/05/17 07:28:50;;;;;;;14.27;9.07;;;;;;;26.93;52.93;100835.44;5024458;28;19920;-92
2022/05/17 07:31:15;;;;;;;20.88;8.73;;;;;;;27.28;51.67;100825.84;5039418;28;20492;-93
2022/05/17 07:33:41;;;;;;;16.55;9.30;;;;;;;27.06;52.71;100832.25;5039701;28;20040;-87
2022/05/17 07:36:08;;;;;;;15.02;8.15;;;;;;;27.09;52.10;100826.28;5040212;28;20034;-90
2022/05/17 07:38:35;;;;;;;16.17;8.80;;;;;;;27.46;51.48;100831.66;5026128;28;20041;-91
2022/05/17 07:41:01;;;;;;;20.50;9.90;;;;;;;27.32;51.32;100829.66;5043691;28;20064;-92
2022/05/17 07:43:31;;;;;;;18.30;9.85;;;;;;;27.46;52.38;100830.84;5042917;28;20025;-93
2022/05/17 07:46:01;;;;;;;20.45;9.05;;;;;;;27.75;51.28;100826.59;5036727;28;20033;-92
2022/05/17 07:48:27;;;;;;;27.15;9.90;;;;;;;27.80;50.49;100829.34;5003758;28;20029;-87
2022/05/17 07:50:53;;;;;;;20.30;8.77;;;;;;;28.07;48.87;100827.22;5025105;28;20046;-93
2022/05/17 07:53:23;;;;;;;15.13;8.52;;;;;;;28.52;48.10;100829.19;5031289;28;20554;-92
2022/05/17 07:55:50;;;;;;;22.25;8.57;;;;;;;28.81;46.65;100831.34;5025081;28;20033;-88
2022/05/17 07:58:20;;;;;;;17.25;7.93;;;;;;;28.82;46.64;100827.56;5024079;28;20045;-89
2022/05/17 08:00:46;;;;;;;20.10;8.68;;;;;;;28.54;46.66;100828.88;5004974;28;20428;-92
2022/05/17 08:03:15;;;;;;;18.20;8.70;;;;;;;27.88;48.23;100828.78;5038560;28;20033;-89
2022/05/17 08:05:41;;;;;;;19.52;8.18;;;;;;;27.41;50.13;100823.44;5020328;28;20038;-90
2022/05/17 08:08:07;;;;;;;19.92;9.63;;;;;;;26.92;51.32;100824.78;5004120;28;20062;-90
2022/05/17 08:10:33;;;;;;;19.10;8.85;;;;;;;27.12;51.48;100812.13;5038675;28;20038;-91
2022/05/17 08:12:59;;;;;;;25.85;8.70;;;;;;;27.40;51.05;100821.81;5040401;28;20515;-88
2022/05/17 08:15:24;;;;;;;14.70;7.68;;;;;;;27.84;49.56;100816.78;5034843;28;20041;-87
2022/05/17 08:17:50;;;;;;;23.92;8.10;;;;;;;27.81;49.32;100820.06;5037850;28;20085;-89
2022/05/17 08:20:18;;;;;;;22.52;8.00;;;;;;;28.61;47.16;100818.53;5028868;28;20068;-91
2022/05/17 08:22:45;;;;;;;15.40;7.45;;;;;;;28.77;45.42;100822.91;5021602;28;20034;-89
2022/05/17 08:28:04;;;;;;;20.42;8.55;;;;;;;28.90;44.98;100822.34;5036575;28;20044;-87
2022/05/17 08:30:31;;;;;;;20.42;7.47;;;;;;;28.89;45.39;100817.16;5035404;28;20093;-88
2022/05/17 08:33:19;;;;;;;19.38;7.07;;;;;;;28.88;44.90;100821.81;5017373;28;20038;-88
2022/05/17 08:35:55;;;;;;;15.70;6.97;;;;;;;28.79;45.74;100820.75;5017410;28;20037;-88
2022/05/17 08:38:33;;;;;;;18.70;7.07;;;;;;;28.46;44.54;100813.91;5034969;28;20044;-87
2022/05/17 08:41:14;;;;;;;11.48;6.18;;;;;;;28.81;45.27;100815.81;5032169;28;20128;-84
2022/05/17 08:44:02;;;;;;;11.35;6.15;;;;;;;29.22;43.99;100816.53;5018200;28;20045;-84
2022/05/17 08:46:44;;;;;;;18.38;6.47;;;;;;;29.21;44.63;100814.91;5025400;28;20041;-86
2022/05/17 08:49:31;;;;;;;16.65;6.15;;;;;;;29.44;42.60;100817.03;5032891;28;20072;-85
2022/05/17 08:52:07;;;;;;;15.75;6.70;;;;;;;29.34;42.99;100813.50;5034378;28;20095;-83
2022/05/17 08:54:41;;;;;;;16.98;5.97;;;;;;;29.55;43.34;100804.97;5033798;28;20034;-84
2022/05/17 08:57:38;;;;;;;19.00;5.70;;;;;;;30.34;41.06;100811.31;5012565;28;20029;-86
2022/05/17 09:00:09;;;;;;;16.15;6.22;;;;;;;30.55;39.73;100812.81;4997666;28;20500;-87
2022/05/17 09:02:49;;;;;;;16.15;5.80;;;;;;;30.90;39.10;100803.41;4997291;28;20120;-87
2022/05/17 09:05:36;;;;;;;15.07;6.70;;;;;;;30.88;39.76;100802.91;5014218;28;20042;-88
2022/05/17 09:08:41;;;;;;;11.70;4.40;;;;;;;30.43;39.91;100806.88;5014504;28;20061;-86
2022/05/17 09:11:35;;;;;;;15.70;5.75;;;;;;;30.66;39.65;100800.66;5014524;28;20038;-87
2022/05/17 09:14:14;;;;;;;15.48;6.55;;;;;;;30.43;39.17;100806.88;5015402;28;20038;-88
2022/05/17 09:16:46;;;;;;;18.00;5.88;;;;;;;30.16;39.54;100799.94;5014780;28;20045;-85
2022/05/17 09:19:15;;;;;;;30.58;7.43;;;;;;;29.60;40.74;100795.91;5014589;28;20038;-85
2022/05/17 09:21:48;;;;;;;10.55;4.78;;;;;;;30.34;40.00;100789.44;4997462;28;20037;-85
2022/05/17 09:24:19;;;;;;;22.73;5.93;;;;;;;30.70;38.62;100788.03;5014484;28;20037;-86
2022/05/17 09:27:10;;;;;;;16.13;5.10;;;;;;;31.32;36.93;100783.53;5014727;28;20497;-85
2022/05/17 09:29:44;;;;;;;14.57;5.40;;;;;;;30.27;40.46;100787.84;5014764;28;20502;-85
2022/05/17 09:32:11;;;;;;;13.77;5.43;;;;;;;30.58;39.54;100785.69;5016970;28;20122;-88
2022/05/17 09:34:45;;;;;;;12.18;5.40;;;;;;;30.59;38.92;100781.03;5030182;28;20029;-85
2022/05/17 09:37:19;;;;;;;14.45;4.60;;;;;;;31.33;37.57;100785.16;5030901;28;20038;-85
2022/05/17 09:39:50;;;;;;;14.52;5.50;;;;;;;31.14;37.02;100772.25;5015007;28;20509;-86
2022/05/17 09:42:31;;;;;;;15.18;4.63;;;;;;;31.36;36.77;100776.34;5014953;28;20044;-88
2022/05/17 09:45:02;;;;;;;8.93;4.00;;;;;;;31.92;36.86;100777.22;5014517;28;20037;-87
2022/05/17 09:47:31;;;;;;;9.32;4.85;;;;;;;31.71;36.86;100767.69;4998114;28;20080;-87
2022/05/17 09:53:04;;;;;;;16.35;4.72;;;;;;;31.44;36.64;100762.00;5013956;28;20066;-86
2022/05/17 09:55:33;;;;;;;19.80;4.85;;;;;;;31.26;35.84;100769.91;4996658;28;20034;-89
2022/05/17 09:58:09;;;;;;;11.27;4.07;;;;;;;31.67;36.02;100758.41;5014090;28;20030;-86
2022/05/17 10:00:41;;;;;;;16.08;4.47;;;;;;;31.76;35.08;100759.38;5013107;28;20461;-86
2022/05/17 10:03:12;;;;;;;;;;;;;;;31.57;35.87;100758.56;5014756;28;20468;-87
2022/05/17 10:05:38;;;;;;;8.43;3.67;;;;;;;32.05;35.62;100759.25;5015175;28;19917;-90
2022/05/17 10:08:26;;;;;;;13.32;3.92;;;;;;;32.62;34.61;100753.31;4998823;28;20038;-87
2022/05/17 10:11:23;;;;;;;15.98;4.15;;;;;;;32.78;34.15;100756.59;4967722;28;20046;-86
2022/05/17 10:13:55;;;;;;;9.85;4.07;;;;;;;32.38;35.00;100760.06;5000142;28;20038;-88
2022/05/17 10:16:32;;;;;;;9.30;4.07;;;;;;;31.93;35.47;100751.44;5018791;28;20119;-88
2022/05/17 10:19:20;;;;;;;14.48;3.55;;;;;;;32.26;35.46;100750.38;5022897;28;20042;-90
2022/05/17 10:21:58;;;;;;;13.25;4.90;;;;;;;31.75;34.93;100744.06;5022248;28;20476;-87
2022/05/17 10:24:49;;;;;;;15.07;4.05;;;;;;;32.27;35.00;100737.47;5020432;28;20030;-86
2022/05/17 10:27:40;;;;;;;15.05;3.80;;;;;;;32.63;34.48;100737.66;5033974;28;20034;-83
2022/05/17 10:30:14;;;;;;;10.90;3.90;;;;;;;32.45;33.85;100730.31;5017583;28;20048;-84
2022/05/17 10:32:50;;;;;;;14.68;3.60;;;;;;;32.47;34.46;100726.13;5013606;28;20088;-86
2022/05/17 10:35:40;;;;;;;10.98;3.90;;;;;;;31.95;34.27;100724.53;5012237;28;20397;-85
2022/05/17 10:38:18;;;;;;;12.30;2.88;;;;;;;32.84;33.23;100721.63;5028223;28;20034;-88
2022/05/17 10:40:48;;;;;;;9.15;3.53;;;;;;;32.60;33.39;100733.59;5016013;28;20030;-85
2022/05/17 10:43:32;;;;;;;9.07;3.72;;;;;;;33.00;33.21;100721.00;5000337;28;20041;-84
2022/05/17 10:46:09;;;;;;;10.48;3.50;;;;;;;32.71;33.15;100720.50;5014451;28;20465;-87
2022/05/17 10:48:45;;;;;;;17.13;4.03;;;;;;;32.98;32.96;100723.22;5013520;28;20053;-89
2022/05/17 10:51:38;;;;;;;12.75;3.42;;;;;;;33.30;31.62;100724.25;5017451;28;20440;-87
2022/05/17 10:54:35;;;;;;;11.38;3.50;;;;;;;33.99;31.23;100720.19;5013124;28;20049;-86
2022/05/17 10:57:23;;;;;;;11.07;3.10;;;;;;;33.86;31.12;100726.56;5032144;28;20493;-91
2022/05/17 11:00:14;;;;;;;15.15;3.20;;;;;;;32.96;31.77;100720.00;5018788;28;20061;-90
2022/05/17 11:03:16;;;;;;;5.47;2.88;;;;;;;32.60;31.89;100710.84;5027262;28;20038;-87
2022/05/17 11:06:12;;;;;;;12.30;2.90;;;;;;;33.13;32.57;100711.16;5023553;28;20121;-89
2022/05/17 11:09:19;;;;;;;15.07;3.63;;;;;;;33.57;30.91;100704.94;5018722;28;20117;-88
2022/05/17 11:12:09;;;;;;;16.95;3.20;;;;;;;33.80;31.03;100701.13;5018558;28;20052;-85
2022/05/17 11:14:50;;;;;;;11.48;3.58;;;;;;;32.20;32.56;100696.72;5020730;28;20124;-87
2022/05/17 11:17:50;;;;;;;8.88;3.20;;;;;;;32.38;33.01;100681.31;5019546;28;20393;-91
2022/05/17 11:20:23;;;;;;;12.88;3.15;;;;;;;33.38;32.12;100687.81;5008186;28;20058;-86
2022/05/17 11:22:59;;;;;;;14.00;3.42;;;;;;;33.09;33.05;100680.75;5027505;28;20050;-91
2022/05/17 11:25:44;;;;;;;11.35;2.85;;;;;;;33.07;32.04;100682.16;5020206;28;20034;-85
2022/05/17 11:28:21;;;;;;;9.13;3.15;;;;;;;33.44;31.84;100684.63;5023414;28;20026;-84
2022/05/17 11:31:12;;;;;;;10.18;3.05;;;;;;;32.96;32.70;100676.03;5017216;28;20414;-84
2022/05/17 11:33:41;;;;;;;10.27;3.47;;;;;;;32.67;32.97;100668.16;5017329;28;20095;-85
2022/05/17 11:36:13;;;;;;;17.55;3.85;;;;;;;32.20;34.15;100665.72;5033787;28;20037;-88
2022/05/17 11:38:51;;;;;;;9.10;3.83;;;;;;;31.75;34.74;100670.84;5043492;28;20041;-86
2022/05/17 11:41:55;;;;;;;9.63;3.15;;;;;;;31.13;36.55;100665.72;5040941;28;20017;-88
2022/05/17 11:45:14;;;;;;;8.60;3.30;;;;;;;30.70;36.57;100653.94;5046006;23;20069;-89
2022/05/17 11:48:14;;;;;;;11.90;3.47;;;;;;;30.56;36.76;100648.34;5059929;28;20062;-85
2022/05/17 11:51:42;;;;;;;11.18;3.13;;;;;;;30.43;37.67;100634.56;5053179;28;20114;-86